createdAt,value
2019-04-04T00:01:05.277Z,74.01
2019-04-04T00:05:08.995Z,74.14
2019-04-04T00:09:13.686Z,73.90
2019-04-04T00:13:17.830Z,73.63
2019-04-04T00:17:23.327Z,73.95
2019-04-04T00:21:29.994Z,73.94
2019-04-04T00:25:33.822Z,74.80
2019-04-04T00:29:37.628Z,74.78
2019-04-04T00:33:41.239Z,74.51
2019-04-04T00:37:44.853Z,74.57
2019-04-04T00:41:48.479Z,74.56
2019-04-04T00:45:52.182Z,74.34
2019-04-04T00:49:55.806Z,74.28
2019-04-04T00:53:59.412Z,74.41
2019-04-04T00:58:03.133Z,74.53
2019-04-04T01:02:06.688Z,74.90
2019-04-04T01:06:10.250Z,74.87
2019-04-04T01:10:14.069Z,74.95
2019-04-04T01:14:17.692Z,74.61
2019-04-04T01:18:21.502Z,74.00
2019-04-04T01:22:25.673Z,73.21
2019-04-04T01:26:29.351Z,73.65
2019-04-04T01:30:33.173Z,73.92
2019-04-04T01:34:36.891Z,73.15
2019-04-04T01:38:40.549Z,73.06
2019-04-04T01:42:44.321Z,73.73
2019-04-04T01:46:47.935Z,73.27
2019-04-04T01:50:53.477Z,73.51
2019-04-04T01:54:57.005Z,73.41
2019-04-04T01:59:00.619Z,73.61
2019-04-04T02:03:04.455Z,73.69
2019-04-04T02:07:08.154Z,74.17
2019-04-04T02:11:11.775Z,74.36
2019-04-04T02:15:15.585Z,73.94
2019-04-04T02:19:19.265Z,74.36
2019-04-04T02:23:22.914Z,74.24
2019-04-04T02:27:26.635Z,74.85
2019-04-04T02:31:31.886Z,74.35
2019-04-04T02:35:35.511Z,74.72
2019-04-04T02:39:39.118Z,75.02
2019-04-04T02:43:42.728Z,75.54
2019-04-04T02:47:50.185Z,74.97
2019-04-04T02:51:51.804Z,75.04
2019-04-04T02:55:55.417Z,74.97
2019-04-04T02:59:59.131Z,74.22
2019-04-04T03:04:02.752Z,74.65
2019-04-04T03:08:06.457Z,75.07
2019-04-04T03:12:10.281Z,74.96
2019-04-04T03:16:14.009Z,75.12
2019-04-04T03:20:17.783Z,75.53
2019-04-04T03:24:21.423Z,75.86
2019-04-04T03:28:25.141Z,76.40
2019-04-04T03:32:28.857Z,75.84
2019-04-04T03:36:33.826Z,76.06
2019-04-04T03:40:41.608Z,75.97
2019-04-04T03:44:42.976Z,76.27
2019-04-04T03:48:49.673Z,76.76
2019-04-04T03:52:52.056Z,75.83
2019-04-04T03:56:55.771Z,75.79
2019-04-04T04:00:59.376Z,76.18
2019-04-04T04:05:03.097Z,75.56
2019-04-04T04:09:06.807Z,76.44
2019-04-04T04:13:10.529Z,76.82
2019-04-04T04:17:14.140Z,76.45
2019-04-04T04:21:17.966Z,76.84
2019-04-04T04:25:21.579Z,77.04
2019-04-04T04:29:29.366Z,76.11
2019-04-04T04:33:30.743Z,76.51
2019-04-04T04:37:34.356Z,76.69
2019-04-04T04:41:38.074Z,76.55
2019-04-04T04:45:45.237Z,76.54
2019-04-04T04:49:49.000Z,76.58
2019-04-04T04:53:52.706Z,76.41
2019-04-04T04:57:56.746Z,75.89
2019-04-04T05:02:00.566Z,75.71
2019-04-04T05:06:04.293Z,75.95
2019-04-04T05:10:08.207Z,75.77
2019-04-04T05:14:11.762Z,76.24
2019-04-04T05:18:16.348Z,76.47
2019-04-04T05:22:20.677Z,76.25
2019-04-04T05:26:24.379Z,75.96
2019-04-04T05:30:28.094Z,76.26
2019-04-04T05:34:31.704Z,75.84
2019-04-04T05:38:35.522Z,75.30
2019-04-04T05:42:39.143Z,74.70
2019-04-04T05:46:42.906Z,74.91
2019-04-04T05:50:46.706Z,75.04
2019-04-04T05:54:50.490Z,74.99
2019-04-04T05:58:54.228Z,74.81
2019-04-04T06:02:58.073Z,74.38
2019-04-04T06:07:04.001Z,74.65
2019-04-04T06:11:07.411Z,75.12
2019-04-04T06:15:12.351Z,75.25
2019-04-04T06:19:16.073Z,75.01
2019-04-04T06:23:20.614Z,74.48
2019-04-04T06:27:24.551Z,74.07
2019-04-04T06:31:30.835Z,73.71
2019-04-04T06:35:35.216Z,74.20
2019-04-04T06:39:39.179Z,74.15
2019-04-04T06:43:42.771Z,74.71
2019-04-04T06:47:46.376Z,74.40
2019-04-04T06:51:49.994Z,74.19
2019-04-04T06:55:53.780Z,74.07
2019-04-04T06:59:57.431Z,73.97
2019-04-04T07:04:01.144Z,74.02
2019-04-04T07:08:04.754Z,73.74
2019-04-04T07:12:20.360Z,73.53
2019-04-04T07:16:14.028Z,73.30
2019-04-04T07:20:17.641Z,72.57
2019-04-04T07:24:21.257Z,72.42
2019-04-04T07:28:24.969Z,72.40
2019-04-04T07:32:28.586Z,71.94
2019-04-04T07:36:32.200Z,71.84
2019-04-04T07:40:37.046Z,71.87
2019-04-04T07:44:41.063Z,71.60
2019-04-04T07:48:44.680Z,71.92
2019-04-04T07:52:48.296Z,70.95
2019-04-04T07:56:51.826Z,69.90
2019-04-04T08:00:55.566Z,70.53
2019-04-04T08:04:59.141Z,69.87
2019-04-04T08:09:04.453Z,70.53
2019-04-04T08:13:08.132Z,70.46
2019-04-04T08:17:11.747Z,70.71
2019-04-04T08:21:15.339Z,70.40
2019-04-04T08:25:19.044Z,69.92
2019-04-04T08:29:22.760Z,70.00
2019-04-04T08:33:26.375Z,69.71
2019-04-04T08:37:30.089Z,68.88
2019-04-04T08:41:33.708Z,68.61
2019-04-04T08:45:37.427Z,69.33
2019-04-04T08:49:41.034Z,69.23
2019-04-04T08:53:44.752Z,69.06
2019-04-04T08:57:48.370Z,69.14
2019-04-04T09:01:51.976Z,69.80
2019-04-04T09:05:55.694Z,70.43
2019-04-04T09:09:59.310Z,70.43
2019-04-04T09:14:03.606Z,70.57
2019-04-04T09:18:07.445Z,71.01
2019-04-04T09:22:11.908Z,69.60
2019-04-04T09:26:15.605Z,69.94
2019-04-04T09:30:20.465Z,70.56
2019-04-04T09:34:24.168Z,70.21
2019-04-04T09:38:29.258Z,70.36
2019-04-04T09:42:32.929Z,70.48
2019-04-04T09:46:36.648Z,70.32
2019-04-04T09:50:40.261Z,69.58
2019-04-04T09:54:43.878Z,70.62
2019-04-04T09:58:47.485Z,71.10
2019-04-04T10:02:51.190Z,71.19
2019-04-04T10:06:54.817Z,71.20
2019-04-04T10:10:58.430Z,70.84
2019-04-04T10:15:02.052Z,71.29
2019-04-04T10:19:05.678Z,70.77
2019-04-04T10:23:09.271Z,70.93
2019-04-04T10:27:12.808Z,70.90
2019-04-04T10:31:16.399Z,70.10
2019-04-04T10:35:19.951Z,70.41
2019-04-04T10:39:29.365Z,69.53
2019-04-04T10:43:28.877Z,69.92
2019-04-04T10:47:32.495Z,69.86
2019-04-04T10:51:36.115Z,68.90
2019-04-04T10:55:39.801Z,69.59
2019-04-04T10:59:43.374Z,70.23
2019-04-04T11:03:46.955Z,69.79
2019-04-04T11:07:50.566Z,69.78
2019-04-04T11:11:54.179Z,70.39
2019-04-04T11:15:57.817Z,70.35
2019-04-04T11:20:01.461Z,70.33
2019-04-04T11:24:05.126Z,70.04
2019-04-04T11:28:08.739Z,68.79
2019-04-04T11:32:12.355Z,68.68
2019-04-04T11:36:16.482Z,68.42
2019-04-04T11:40:20.097Z,69.72
2019-04-04T11:44:23.707Z,70.38
2019-04-04T11:48:30.086Z,68.77
2019-04-04T11:52:33.705Z,69.22
2019-04-04T11:56:37.272Z,68.73
2019-04-04T12:00:42.566Z,68.92
2019-04-04T12:04:46.181Z,67.96
2019-04-04T12:08:49.792Z,67.96
2019-04-04T12:12:53.500Z,68.38
2019-04-04T12:16:57.225Z,67.96
2019-04-04T12:21:00.844Z,68.33
2019-04-04T12:25:05.582Z,67.66
2019-04-04T12:29:09.194Z,68.35
2019-04-04T12:33:12.836Z,67.68
2019-04-04T12:37:16.529Z,67.20
2019-04-04T12:41:20.149Z,67.64
2019-04-04T12:45:23.753Z,67.15
2019-04-04T12:49:27.368Z,66.85
2019-04-04T12:53:32.761Z,67.06
2019-04-04T12:57:36.648Z,68.20
2019-04-04T13:01:40.193Z,65.22
2019-04-04T13:05:43.912Z,64.95
2019-04-04T13:09:47.491Z,64.65
2019-04-04T13:13:51.098Z,63.28
2019-04-04T13:17:54.718Z,63.07
2019-04-04T13:21:58.431Z,61.07
2019-04-04T13:26:02.043Z,61.42
2019-04-04T13:30:10.671Z,60.75
2019-04-04T13:34:14.269Z,59.99
2019-04-04T13:38:17.940Z,59.71
2019-04-04T13:42:21.618Z,59.69
2019-04-04T13:46:29.183Z,59.08
2019-04-04T13:50:30.585Z,59.34
2019-04-04T13:54:34.201Z,59.32
2019-04-04T13:58:37.767Z,60.46
2019-04-04T14:02:41.496Z,60.52
2019-04-04T14:06:45.043Z,59.90
2019-04-04T14:10:58.161Z,60.30
2019-04-04T14:14:54.264Z,60.31
2019-04-04T14:18:57.829Z,60.14
2019-04-04T14:23:01.747Z,61.60
2019-04-04T14:27:05.574Z,59.50
2019-04-04T14:31:09.183Z,58.43
2019-04-04T14:35:13.308Z,59.65
2019-04-04T14:39:17.024Z,61.33
2019-04-04T14:43:20.661Z,59.89
2019-04-04T14:47:24.250Z,59.97
2019-04-04T14:51:27.867Z,59.92
2019-04-04T14:55:31.583Z,60.85
2019-04-04T14:59:35.197Z,61.51
2019-04-04T15:03:38.745Z,62.59
2019-04-04T15:07:42.362Z,63.62
2019-04-04T15:11:45.914Z,63.76
2019-04-04T15:16:11.988Z,63.24
2019-04-04T15:20:15.999Z,62.72
2019-04-04T15:24:19.717Z,62.15
2019-04-04T15:28:26.027Z,63.18
2019-04-04T15:32:28.545Z,63.73
2019-04-04T15:36:34.864Z,64.17
2019-04-04T15:40:38.572Z,63.52
2019-04-04T15:44:42.159Z,63.06
2019-04-04T15:48:45.909Z,63.10
2019-04-04T15:52:49.517Z,62.82
2019-04-04T15:56:53.235Z,62.92
2019-04-04T16:00:56.848Z,63.66
2019-04-04T16:05:00.473Z,64.19
2019-04-04T16:09:05.929Z,64.60
2019-04-04T16:13:09.456Z,64.18
2019-04-04T16:17:15.815Z,64.89
2019-04-04T16:21:19.435Z,66.00
2019-04-04T16:25:23.148Z,66.28
2019-04-04T16:29:26.869Z,66.54
2019-04-04T16:33:30.508Z,67.46
2019-04-04T16:37:34.195Z,67.67
2019-04-04T16:41:37.911Z,68.33
2019-04-04T16:45:41.475Z,69.13
2019-04-04T16:49:45.143Z,69.66
2019-04-04T16:53:48.698Z,70.50
2019-04-04T16:57:52.361Z,70.51
2019-04-04T17:01:55.982Z,70.75
2019-04-04T17:05:59.594Z,71.25
2019-04-04T17:10:03.589Z,71.54
2019-04-04T17:14:07.332Z,71.86
2019-04-04T17:18:10.946Z,72.30
2019-04-04T17:22:14.561Z,72.84
2019-04-04T17:26:18.177Z,73.00
2019-04-04T17:30:22.178Z,72.49
2019-04-04T17:34:26.306Z,72.60
2019-04-04T17:38:30.467Z,72.65
2019-04-04T17:42:34.453Z,73.05
2019-04-04T17:46:38.092Z,73.53
2019-04-04T17:50:41.664Z,73.87
2019-04-04T17:54:45.317Z,73.98
2019-04-04T17:58:48.933Z,74.21
2019-04-04T18:02:52.554Z,74.45
2019-04-04T18:06:56.185Z,74.88
2019-04-04T18:11:00.287Z,74.63
2019-04-04T18:15:05.854Z,74.89
2019-04-04T18:19:09.524Z,75.08
2019-04-04T18:23:15.198Z,74.99
2019-04-04T18:27:18.530Z,75.17
2019-04-04T18:31:22.355Z,74.95
2019-04-04T18:35:26.722Z,75.08
2019-04-04T18:39:30.378Z,75.10
2019-04-04T18:43:34.217Z,75.34
2019-04-04T18:47:37.829Z,75.34
2019-04-04T18:51:41.502Z,75.52
2019-04-04T18:55:45.146Z,75.55
2019-04-04T18:59:48.690Z,75.65
2019-04-04T19:03:52.729Z,75.73
2019-04-04T19:07:56.510Z,76.01
2019-04-04T19:12:00.337Z,75.67
2019-04-04T19:16:04.558Z,75.61
2019-04-04T19:20:10.469Z,75.79
2019-04-04T19:24:14.440Z,75.65
2019-04-04T19:28:18.264Z,75.68
2019-04-04T19:32:22.316Z,75.87
2019-04-04T19:36:25.902Z,76.17
2019-04-04T19:40:29.977Z,76.46
2019-04-04T19:44:34.161Z,76.66
2019-04-04T19:48:38.217Z,76.58
2019-04-04T19:52:41.795Z,76.62
2019-04-04T19:56:46.047Z,76.78
2019-04-04T20:00:50.143Z,77.03
2019-04-04T20:04:54.103Z,77.08
2019-04-04T20:08:57.989Z,77.28
2019-04-04T20:13:02.056Z,77.16
2019-04-04T20:17:06.412Z,77.28
2019-04-04T20:21:10.442Z,77.50
2019-04-04T20:25:14.416Z,77.59
2019-04-04T20:29:18.616Z,77.78
2019-04-04T20:33:23.155Z,77.60
2019-04-04T20:37:27.189Z,77.85
2019-04-04T20:41:31.342Z,77.81
2019-04-04T20:45:35.015Z,77.77
2019-04-04T20:49:39.070Z,77.91
2019-04-04T20:53:43.197Z,77.85
2019-04-04T20:57:46.785Z,77.92
2019-04-04T21:01:50.441Z,77.93
2019-04-04T21:05:54.466Z,77.75
2019-04-04T21:09:58.073Z,78.19
2019-04-04T21:14:01.678Z,78.43
2019-04-04T21:18:05.254Z,78.48
2019-04-04T21:22:08.903Z,78.60
2019-04-04T21:26:12.521Z,78.54
2019-04-04T21:30:16.338Z,78.51
2019-04-04T21:34:20.058Z,78.67
2019-04-04T21:38:24.531Z,78.80
2019-04-04T21:42:28.305Z,78.48
2019-04-04T21:46:32.136Z,78.24
2019-04-04T21:50:38.202Z,77.96
2019-04-04T21:54:41.595Z,77.83
2019-04-04T21:58:45.631Z,77.74
2019-04-04T22:02:49.560Z,77.35
2019-04-04T22:06:53.267Z,77.06
2019-04-04T22:10:56.980Z,77.15
2019-04-04T22:15:00.604Z,77.25
2019-04-04T22:19:04.312Z,77.41
2019-04-04T22:23:08.029Z,77.47
2019-04-04T22:27:11.669Z,77.29
2019-04-04T22:31:15.254Z,77.50
2019-04-04T22:35:18.971Z,77.45
2019-04-04T22:39:22.583Z,77.41
2019-04-04T22:43:26.198Z,77.36
2019-04-04T22:47:30.016Z,77.59
2019-04-04T22:51:33.629Z,77.49
2019-04-04T22:55:37.348Z,77.52
2019-04-04T22:59:40.968Z,77.76
2019-04-04T23:03:44.683Z,77.86
2019-04-04T23:07:48.396Z,77.87
2019-04-04T23:11:52.012Z,77.83
2019-04-04T23:15:55.623Z,78.00
2019-04-04T23:19:59.237Z,78.11
2019-04-04T23:24:02.851Z,77.87
2019-04-04T23:28:06.775Z,77.91
2019-04-04T23:32:10.394Z,77.94
2019-04-04T23:36:13.998Z,78.08
2019-04-04T23:40:17.614Z,78.09
2019-04-04T23:44:21.228Z,78.05
2019-04-04T23:48:24.842Z,78.29
2019-04-04T23:52:28.554Z,78.22
2019-04-04T23:56:32.168Z,78.24
